sensor_id;sensor_type;location;lat;lon;timestamp;pressure;altitude;pressure_sealevel;temperature;humidity
41467;BME280;72625;53.700;19.958;2024-01-30T00:02:22;101673.67;;;3.70;87.47
41467;BME280;72625;53.700;19.958;2024-01-30T00:07:31;101683.33;;;3.57;87.27
41467;BME280;72625;53.700;19.958;2024-01-30T00:20:07;101653.36;;;3.31;87.55
41467;BME280;72625;53.700;19.958;2024-01-30T00:25:35;101659.43;;;3.17;87.39
41467;BME280;72625;53.700;19.958;2024-01-30T00:30:49;101659.89;;;3.07;87.50
41467;BME280;72625;53.700;19.958;2024-01-30T00:35:54;101647.14;;;3.06;87.60
41467;BME280;72625;53.700;19.958;2024-01-30T00:41:15;101642.73;;;3.11;87.62
41467;BME280;72625;53.700;19.958;2024-01-30T00:47:55;101639.54;;;3.21;87.53
41467;BME280;72625;53.700;19.958;2024-01-30T00:54:26;101637.66;;;3.31;87.65
41467;BME280;72625;53.700;19.958;2024-01-30T01:00:57;101627.96;;;3.36;87.69
41467;BME280;72625;53.700;19.958;2024-01-30T01:06:00;101625.34;;;3.39;87.69
41467;BME280;72625;53.700;19.958;2024-01-30T01:11:04;101623.41;;;3.42;87.65
41467;BME280;72625;53.700;19.958;2024-01-30T01:16:22;101625.05;;;3.43;87.75
41467;BME280;72625;53.700;19.958;2024-01-30T01:21:32;101619.27;;;3.41;87.68
41467;BME280;72625;53.700;19.958;2024-01-30T01:26:55;101620.27;;;3.38;87.78
41467;BME280;72625;53.700;19.958;2024-01-30T01:32:06;101630.21;;;3.35;87.45
41467;BME280;72625;53.700;19.958;2024-01-30T01:37:11;101632.14;;;3.33;87.06
41467;BME280;72625;53.700;19.958;2024-01-30T01:42:20;101637.73;;;3.34;87.31
41467;BME280;72625;53.700;19.958;2024-01-30T01:47:25;101631.90;;;3.31;87.34
41467;BME280;72625;53.700;19.958;2024-01-30T01:52:48;101629.83;;;3.23;87.22
41467;BME280;72625;53.700;19.958;2024-01-30T01:58:09;101627.95;;;3.20;86.70
41467;BME280;72625;53.700;19.958;2024-01-30T02:03:24;101631.96;;;3.17;86.80
41467;BME280;72625;53.700;19.958;2024-01-30T02:08:27;101631.04;;;3.16;86.79
41467;BME280;72625;53.700;19.958;2024-01-30T02:13:33;101630.39;;;3.13;86.82
41467;BME280;72625;53.700;19.958;2024-01-30T02:18:38;101624.52;;;3.09;87.07
41467;BME280;72625;53.700;19.958;2024-01-30T02:29:08;101626.11;;;3.03;87.12
41467;BME280;72625;53.700;19.958;2024-01-30T02:34:10;101621.40;;;3.06;87.24
41467;BME280;72625;53.700;19.958;2024-01-30T02:39:23;101612.57;;;3.02;87.21
41467;BME280;72625;53.700;19.958;2024-01-30T02:44:34;101612.23;;;2.97;87.12
41467;BME280;72625;53.700;19.958;2024-01-30T02:50:15;101608.22;;;2.90;87.14
41467;BME280;72625;53.700;19.958;2024-01-30T02:55:22;101615.14;;;2.90;87.27
41467;BME280;72625;53.700;19.958;2024-01-30T03:00:26;101620.83;;;2.82;86.80
41467;BME280;72625;53.700;19.958;2024-01-30T03:05:51;101621.06;;;2.73;87.18
41467;BME280;72625;53.700;19.958;2024-01-30T03:11:03;101623.54;;;2.72;87.16
41467;BME280;72625;53.700;19.958;2024-01-30T03:16:06;101622.63;;;2.66;87.06
41467;BME280;72625;53.700;19.958;2024-01-30T03:21:09;101619.09;;;2.60;86.85
41467;BME280;72625;53.700;19.958;2024-01-30T03:26:20;101618.58;;;2.54;86.80
41467;BME280;72625;53.700;19.958;2024-01-30T03:31:43;101612.69;;;2.47;86.78
41467;BME280;72625;53.700;19.958;2024-01-30T03:36:46;101609.23;;;2.44;86.82
41467;BME280;72625;53.700;19.958;2024-01-30T03:41:48;101609.55;;;2.44;87.13
41467;BME280;72625;53.700;19.958;2024-01-30T03:46:53;101606.14;;;2.45;87.10
41467;BME280;72625;53.700;19.958;2024-01-30T03:52:18;101598.66;;;2.43;86.84
41467;BME280;72625;53.700;19.958;2024-01-30T03:57:27;101591.23;;;2.45;87.11
41467;BME280;72625;53.700;19.958;2024-01-30T04:02:29;101589.35;;;2.44;86.81
41467;BME280;72625;53.700;19.958;2024-01-30T04:07:35;101587.84;;;2.40;86.85
41467;BME280;72625;53.700;19.958;2024-01-30T04:12:37;101581.02;;;2.42;87.06
41467;BME280;72625;53.700;19.958;2024-01-30T04:17:40;101581.16;;;2.42;87.07
41467;BME280;72625;53.700;19.958;2024-01-30T04:22:46;101579.48;;;2.44;87.02
41467;BME280;72625;53.700;19.958;2024-01-30T04:27:52;101582.62;;;2.47;86.89
41467;BME280;72625;53.700;19.958;2024-01-30T04:33:00;101573.25;;;2.50;87.14
41467;BME280;72625;53.700;19.958;2024-01-30T04:38:23;101572.11;;;2.54;87.12
41467;BME280;72625;53.700;19.958;2024-01-30T04:43:25;101570.65;;;2.57;86.99
41467;BME280;72625;53.700;19.958;2024-01-30T04:48:58;101566.70;;;2.59;86.88
41467;BME280;72625;53.700;19.958;2024-01-30T04:54:14;101567.74;;;2.62;87.15
41467;BME280;72625;53.700;19.958;2024-01-30T04:59:31;101562.77;;;2.64;87.18
41467;BME280;72625;53.700;19.958;2024-01-30T05:05:04;101555.25;;;2.65;87.22
41467;BME280;72625;53.700;19.958;2024-01-30T05:10:26;101552.15;;;2.65;87.15
41467;BME280;72625;53.700;19.958;2024-01-30T05:15:31;101557.50;;;2.64;86.82
41467;BME280;72625;53.700;19.958;2024-01-30T05:20:37;101571.09;;;2.61;86.63
41467;BME280;72625;53.700;19.958;2024-01-30T05:25:39;101574.86;;;2.58;86.48
41467;BME280;72625;53.700;19.958;2024-01-30T05:30:45;101576.38;;;2.55;86.36
41467;BME280;72625;53.700;19.958;2024-01-30T05:36:00;101570.09;;;2.54;86.69
41467;BME280;72625;53.700;19.958;2024-01-30T05:41:18;101564.73;;;2.56;86.94
41467;BME280;72625;53.700;19.958;2024-01-30T05:46:51;101559.77;;;2.56;86.93
41467;BME280;72625;53.700;19.958;2024-01-30T05:51:54;101565.29;;;2.57;87.00
41467;BME280;72625;53.700;19.958;2024-01-30T05:57:08;101572.49;;;2.53;86.26
41467;BME280;72625;53.700;19.958;2024-01-30T06:13:23;101568.09;;;2.38;86.33
41467;BME280;72625;53.700;19.958;2024-01-30T06:30:20;101571.11;;;2.36;86.37
41467;BME280;72625;53.700;19.958;2024-01-30T06:35:25;101567.61;;;2.36;86.35
41467;BME280;72625;53.700;19.958;2024-01-30T06:40:47;101569.17;;;2.38;86.52
41467;BME280;72625;53.700;19.958;2024-01-30T06:58:15;101576.70;;;2.46;86.56
41467;BME280;72625;53.700;19.958;2024-01-30T07:03:58;101583.27;;;2.51;86.27
41467;BME280;72625;53.700;19.958;2024-01-30T07:09:46;101587.42;;;2.54;86.43
41467;BME280;72625;53.700;19.958;2024-01-30T07:15:01;101585.35;;;2.57;85.80
41467;BME280;72625;53.700;19.958;2024-01-30T07:20:32;101583.90;;;2.62;85.76
41467;BME280;72625;53.700;19.958;2024-01-30T07:25:37;101583.48;;;2.68;85.92
41467;BME280;72625;53.700;19.958;2024-01-30T07:30:56;101576.33;;;2.79;86.36
41467;BME280;72625;53.700;19.958;2024-01-30T07:36:29;101581.08;;;2.89;86.22
41467;BME280;72625;53.700;19.958;2024-01-30T07:42:01;101578.46;;;2.94;85.93
41467;BME280;72625;53.700;19.958;2024-01-30T07:47:23;101583.10;;;3.03;85.61
41467;BME280;72625;53.700;19.958;2024-01-30T07:52:49;101589.92;;;3.10;85.43
41467;BME280;72625;53.700;19.958;2024-01-30T07:58:05;101590.89;;;3.16;84.89
41467;BME280;72625;53.700;19.958;2024-01-30T08:14:54;101599.52;;;3.60;85.05
41467;BME280;72625;53.700;19.958;2024-01-30T08:20:37;101596.14;;;3.69;85.04
41467;BME280;72625;53.700;19.958;2024-01-30T08:25:42;101593.45;;;3.82;85.38
41467;BME280;72625;53.700;19.958;2024-01-30T08:42:15;101587.44;;;4.01;83.84
41467;BME280;72625;53.700;19.958;2024-01-30T08:47:23;101589.47;;;4.05;83.09
41467;BME280;72625;53.700;19.958;2024-01-30T08:52:56;101586.67;;;4.12;83.17
41467;BME280;72625;53.700;19.958;2024-01-30T08:58:50;101586.00;;;4.22;82.87
41467;BME280;72625;53.700;19.958;2024-01-30T09:04:22;101578.77;;;4.38;82.98
41467;BME280;72625;53.700;19.958;2024-01-30T09:09:37;101580.33;;;4.45;82.34
41467;BME280;72625;53.700;19.958;2024-01-30T09:20:28;101579.86;;;4.59;81.91
41467;BME280;72625;53.700;19.958;2024-01-30T09:25:50;101582.36;;;4.79;82.41
41467;BME280;72625;53.700;19.958;2024-01-30T09:31:03;101580.08;;;4.87;81.41
41467;BME280;72625;53.700;19.958;2024-01-30T09:36:16;101577.28;;;4.86;80.75
41467;BME280;72625;53.700;19.958;2024-01-30T09:42:41;101569.80;;;4.86;80.76
41467;BME280;72625;53.700;19.958;2024-01-30T09:47:16;101574.08;;;4.84;80.24
41467;BME280;72625;53.700;19.958;2024-01-30T09:52:20;101569.79;;;4.90;80.69
41467;BME280;72625;53.700;19.958;2024-01-30T09:57:25;101569.30;;;5.01;81.21
41467;BME280;72625;53.700;19.958;2024-01-30T10:02:28;101563.60;;;5.07;80.14
41467;BME280;72625;53.700;19.958;2024-01-30T10:07:30;101558.52;;;5.11;80.36
41467;BME280;72625;53.700;19.958;2024-01-30T10:12:57;101556.33;;;5.15;80.34
41467;BME280;72625;53.700;19.958;2024-01-30T10:18:08;101550.20;;;5.22;80.86
41467;BME280;72625;53.700;19.958;2024-01-30T10:23:32;101547.00;;;5.21;79.59
41467;BME280;72625;53.700;19.958;2024-01-30T10:29:17;101543.41;;;5.26;79.16
41467;BME280;72625;53.700;19.958;2024-01-30T10:35:01;101544.23;;;5.37;79.08
41467;BME280;72625;53.700;19.958;2024-01-30T10:40:03;101541.98;;;5.53;79.53
41467;BME280;72625;53.700;19.958;2024-01-30T10:45:13;101539.84;;;5.60;78.64
41467;BME280;72625;53.700;19.958;2024-01-30T10:50:25;101534.39;;;5.72;79.13
41467;BME280;72625;53.700;19.958;2024-01-30T10:55:29;101529.26;;;5.86;78.81
41467;BME280;72625;53.700;19.958;2024-01-30T11:00:35;101523.36;;;6.05;79.34
41467;BME280;72625;53.700;19.958;2024-01-30T11:05:40;101520.14;;;6.17;79.39
41467;BME280;72625;53.700;19.958;2024-01-30T11:16:33;101514.34;;;6.39;78.72
41467;BME280;72625;53.700;19.958;2024-01-30T11:21:56;101507.27;;;6.34;77.73
41467;BME280;72625;53.700;19.958;2024-01-30T11:27:02;101496.63;;;6.43;79.34
41467;BME280;72625;53.700;19.958;2024-01-30T11:32:10;101492.84;;;6.56;79.24
41467;BME280;72625;53.700;19.958;2024-01-30T11:37:20;101485.16;;;6.66;80.18
41467;BME280;72625;53.700;19.958;2024-01-30T11:42:36;101488.85;;;6.80;80.13
41467;BME280;72625;53.700;19.958;2024-01-30T11:47:46;101485.54;;;6.97;79.41
41467;BME280;72625;53.700;19.958;2024-01-30T11:52:58;101484.11;;;7.12;79.88
41467;BME280;72625;53.700;19.958;2024-01-30T11:58:05;101484.27;;;7.12;79.24
41467;BME280;72625;53.700;19.958;2024-01-30T12:03:11;101474.14;;;7.14;79.83
41467;BME280;72625;53.700;19.958;2024-01-30T12:08:19;101477.37;;;7.12;78.79
41467;BME280;72625;53.700;19.958;2024-01-30T12:13:36;101474.86;;;7.25;79.74
41467;BME280;72625;53.700;19.958;2024-01-30T12:18:59;101471.09;;;7.39;79.19
41467;BME280;72625;53.700;19.958;2024-01-30T12:24:03;101465.73;;;7.41;77.91
41467;BME280;72625;53.700;19.958;2024-01-30T12:29:06;101465.54;;;7.49;78.60
41467;BME280;72625;53.700;19.958;2024-01-30T12:34:08;101459.95;;;7.52;78.10
41467;BME280;72625;53.700;19.958;2024-01-30T12:39:17;101459.16;;;7.68;79.44
41467;BME280;72625;53.700;19.958;2024-01-30T12:44:56;101452.36;;;7.83;79.94
41467;BME280;72625;53.700;19.958;2024-01-30T12:50:02;101447.95;;;7.95;79.60
41467;BME280;72625;53.700;19.958;2024-01-30T12:55:14;101441.63;;;7.93;79.92
41467;BME280;72625;53.700;19.958;2024-01-30T13:00:19;101434.60;;;7.86;79.23
41467;BME280;72625;53.700;19.958;2024-01-30T13:05:45;101425.55;;;7.79;79.28
41467;BME280;72625;53.700;19.958;2024-01-30T13:10:47;101420.61;;;7.79;79.80
41467;BME280;72625;53.700;19.958;2024-01-30T13:15:52;101419.57;;;7.80;79.95
41467;BME280;72625;53.700;19.958;2024-01-30T13:21:04;101411.58;;;7.85;79.96
41467;BME280;72625;53.700;19.958;2024-01-30T13:26:15;101407.97;;;7.90;80.13
41467;BME280;72625;53.700;19.958;2024-01-30T13:31:32;101405.31;;;7.89;80.02
41467;BME280;72625;53.700;19.958;2024-01-30T13:36:35;101398.36;;;7.84;79.62
41467;BME280;72625;53.700;19.958;2024-01-30T13:41:47;101398.03;;;7.80;80.04
41467;BME280;72625;53.700;19.958;2024-01-30T13:47:03;101397.56;;;7.75;79.98
41467;BME280;72625;53.700;19.958;2024-01-30T13:52:19;101389.93;;;7.71;79.93
41467;BME280;72625;53.700;19.958;2024-01-30T13:57:45;101380.29;;;7.67;80.08
41467;BME280;72625;53.700;19.958;2024-01-30T14:02:49;101388.08;;;7.60;79.99
41467;BME280;72625;53.700;19.958;2024-01-30T14:08:23;101390.94;;;7.51;78.82
41467;BME280;72625;53.700;19.958;2024-01-30T14:13:56;101390.20;;;7.49;79.81
41467;BME280;72625;53.700;19.958;2024-01-30T14:19:19;101381.39;;;7.36;78.90
41467;BME280;72625;53.700;19.958;2024-01-30T14:24:44;101380.96;;;7.23;79.35
41467;BME280;72625;53.700;19.958;2024-01-30T14:30:04;101385.87;;;7.13;79.64
41467;BME280;72625;53.700;19.958;2024-01-30T14:35:31;101382.52;;;7.04;79.97
41467;BME280;72625;53.700;19.958;2024-01-30T14:40:59;101383.25;;;6.97;79.93
41467;BME280;72625;53.700;19.958;2024-01-30T14:46:01;101379.15;;;6.87;79.82
41467;BME280;72625;53.700;19.958;2024-01-30T14:51:19;101379.32;;;6.73;79.39
41467;BME280;72625;53.700;19.958;2024-01-30T14:56:59;101377.23;;;6.59;79.32
41467;BME280;72625;53.700;19.958;2024-01-30T15:02:04;101385.81;;;6.46;79.76
41467;BME280;72625;53.700;19.958;2024-01-30T15:07:13;101393.73;;;6.37;79.77
41467;BME280;72625;53.700;19.958;2024-01-30T15:12:29;101397.59;;;6.25;80.02
41467;BME280;72625;53.700;19.958;2024-01-30T15:17:34;101394.45;;;6.19;79.84
41467;BME280;72625;53.700;19.958;2024-01-30T15:22:36;101395.72;;;6.08;79.95
41467;BME280;72625;53.700;19.958;2024-01-30T15:27:51;101397.76;;;6.00;79.99
41467;BME280;72625;53.700;19.958;2024-01-30T15:33:19;101402.16;;;5.86;79.75
41467;BME280;72625;53.700;19.958;2024-01-30T15:38:27;101398.94;;;5.76;79.84
41467;BME280;72625;53.700;19.958;2024-01-30T15:43:30;101396.42;;;5.66;79.95
41467;BME280;72625;53.700;19.958;2024-01-30T15:49:03;101388.38;;;5.56;79.93
41467;BME280;72625;53.700;19.958;2024-01-30T15:54:16;101389.77;;;5.48;80.03
41467;BME280;72625;53.700;19.958;2024-01-30T15:59:32;101387.16;;;5.39;79.89
41467;BME280;72625;53.700;19.958;2024-01-30T16:04:47;101384.94;;;5.33;79.99
41467;BME280;72625;53.700;19.958;2024-01-30T16:10:40;101379.67;;;5.25;79.93
41467;BME280;72625;53.700;19.958;2024-01-30T16:26:55;101379.36;;;5.16;79.99
41467;BME280;72625;53.700;19.958;2024-01-30T16:38:01;101379.36;;;5.14;80.11
41467;BME280;72625;53.700;19.958;2024-01-30T16:48:47;101382.77;;;5.04;80.00
41467;BME280;72625;53.700;19.958;2024-01-30T16:53:54;101381.02;;;4.93;79.84
41467;BME280;72625;53.700;19.958;2024-01-30T16:59:26;101381.14;;;4.83;79.96
41467;BME280;72625;53.700;19.958;2024-01-30T17:04:49;101374.30;;;4.78;79.88
41467;BME280;72625;53.700;19.958;2024-01-30T17:10:04;101372.13;;;4.76;79.95
41467;BME280;72625;53.700;19.958;2024-01-30T17:15:27;101373.39;;;4.70;79.78
41467;BME280;72625;53.700;19.958;2024-01-30T17:25:45;101363.23;;;4.62;80.04
41467;BME280;72625;53.700;19.958;2024-01-30T17:30:50;101360.02;;;4.62;80.07
41467;BME280;72625;53.700;19.958;2024-01-30T17:36:11;101358.86;;;4.61;79.95
41467;BME280;72625;53.700;19.958;2024-01-30T17:41:27;101356.61;;;4.61;79.99
41467;BME280;72625;53.700;19.958;2024-01-30T17:46:40;101350.14;;;4.57;79.99
41467;BME280;72625;53.700;19.958;2024-01-30T17:52:00;101340.31;;;4.57;80.19
41467;BME280;72625;53.700;19.958;2024-01-30T17:57:08;101338.85;;;4.54;80.22
41467;BME280;72625;53.700;19.958;2024-01-30T18:02:30;101336.27;;;4.53;80.39
41467;BME280;72625;53.700;19.958;2024-01-30T18:18:58;101322.40;;;4.55;80.61
41467;BME280;72625;53.700;19.958;2024-01-30T18:24:01;101316.99;;;4.61;80.58
41467;BME280;72625;53.700;19.958;2024-01-30T18:39:48;101301.94;;;4.77;80.46
41467;BME280;72625;53.700;19.958;2024-01-30T18:45:13;101295.05;;;4.80;80.31
41467;BME280;72625;53.700;19.958;2024-01-30T18:50:24;101290.35;;;4.85;79.87
41467;BME280;72625;53.700;19.958;2024-01-30T18:55:50;101289.88;;;4.88;79.77
41467;BME280;72625;53.700;19.958;2024-01-30T19:00:56;101286.82;;;4.88;79.98
41467;BME280;72625;53.700;19.958;2024-01-30T19:05:58;101289.27;;;4.84;79.82
41467;BME280;72625;53.700;19.958;2024-01-30T19:11:16;101290.45;;;4.83;79.66
41467;BME280;72625;53.700;19.958;2024-01-30T19:16:26;101291.77;;;4.81;79.24
41467;BME280;72625;53.700;19.958;2024-01-30T19:21:49;101292.27;;;4.78;79.21
41467;BME280;72625;53.700;19.958;2024-01-30T19:27:01;101290.11;;;4.72;79.30
41467;BME280;72625;53.700;19.958;2024-01-30T19:32:03;101281.89;;;4.67;79.78
41467;BME280;72625;53.700;19.958;2024-01-30T19:37:16;101278.78;;;4.64;79.55
41467;BME280;72625;53.700;19.958;2024-01-30T19:58:40;101253.90;;;4.64;79.75
41467;BME280;72625;53.700;19.958;2024-01-30T20:03:47;101254.15;;;4.62;79.94
41467;BME280;72625;53.700;19.958;2024-01-30T20:09:30;101262.58;;;4.60;79.90
41467;BME280;72625;53.700;19.958;2024-01-30T20:14:58;101263.52;;;4.60;79.62
41467;BME280;72625;53.700;19.958;2024-01-30T20:20:32;101262.98;;;4.59;79.59
41467;BME280;72625;53.700;19.958;2024-01-30T20:25:43;101265.00;;;4.57;79.41
41467;BME280;72625;53.700;19.958;2024-01-30T20:31:16;101261.83;;;4.55;79.62
41467;BME280;72625;53.700;19.958;2024-01-30T20:36:40;101257.73;;;4.51;79.72
41467;BME280;72625;53.700;19.958;2024-01-30T20:41:49;101257.12;;;4.46;79.82
41467;BME280;72625;53.700;19.958;2024-01-30T20:47:12;101252.38;;;4.41;79.76
41467;BME280;72625;53.700;19.958;2024-01-30T20:58:29;101241.27;;;4.33;79.89
41467;BME280;72625;53.700;19.958;2024-01-30T21:04:14;101232.86;;;4.33;80.01
41467;BME280;72625;53.700;19.958;2024-01-30T21:09:22;101228.98;;;4.30;79.97
41467;BME280;72625;53.700;19.958;2024-01-30T21:14:25;101226.89;;;4.30;79.92
41467;BME280;72625;53.700;19.958;2024-01-30T21:19:32;101223.13;;;4.32;80.10
41467;BME280;72625;53.700;19.958;2024-01-30T21:24:37;101217.74;;;4.33;80.14
41467;BME280;72625;53.700;19.958;2024-01-30T21:30:00;101219.76;;;4.36;80.24
41467;BME280;72625;53.700;19.958;2024-01-30T21:35:35;101218.98;;;4.35;79.93
41467;BME280;72625;53.700;19.958;2024-01-30T21:40:37;101218.35;;;4.36;80.04
41467;BME280;72625;53.700;19.958;2024-01-30T21:45:48;101212.35;;;4.37;79.90
41467;BME280;72625;53.700;19.958;2024-01-30T21:50:52;101206.98;;;4.37;80.13
41467;BME280;72625;53.700;19.958;2024-01-30T21:56:15;101206.82;;;4.36;80.28
41467;BME280;72625;53.700;19.958;2024-01-30T22:01:17;101204.33;;;4.36;79.85
41467;BME280;72625;53.700;19.958;2024-01-30T22:06:46;101201.23;;;4.33;79.86
41467;BME280;72625;53.700;19.958;2024-01-30T22:12:11;101206.38;;;4.30;80.01
41467;BME280;72625;53.700;19.958;2024-01-30T22:17:37;101202.20;;;4.27;80.23
41467;BME280;72625;53.700;19.958;2024-01-30T22:23:03;101205.25;;;4.24;80.01
41467;BME280;72625;53.700;19.958;2024-01-30T22:28:35;101203.71;;;4.18;80.09
41467;BME280;72625;53.700;19.958;2024-01-30T22:33:50;101203.89;;;4.14;80.22
41467;BME280;72625;53.700;19.958;2024-01-30T22:38:55;101205.37;;;4.12;80.15
41467;BME280;72625;53.700;19.958;2024-01-30T22:43:58;101206.32;;;4.08;80.32
41467;BME280;72625;53.700;19.958;2024-01-30T22:49:10;101199.02;;;4.04;80.36
41467;BME280;72625;53.700;19.958;2024-01-30T22:54:16;101205.79;;;4.05;80.42
41467;BME280;72625;53.700;19.958;2024-01-30T23:17:07;101193.92;;;3.93;80.50
41467;BME280;72625;53.700;19.958;2024-01-30T23:23:03;101188.48;;;3.90;80.56
41467;BME280;72625;53.700;19.958;2024-01-30T23:34:18;101187.09;;;3.87;80.60
41467;BME280;72625;53.700;19.958;2024-01-30T23:39:31;101179.22;;;3.86;80.54
41467;BME280;72625;53.700;19.958;2024-01-30T23:44:58;101178.53;;;3.85;80.64
41467;BME280;72625;53.700;19.958;2024-01-30T23:50:06;101173.95;;;3.85;80.77
41467;BME280;72625;53.700;19.958;2024-01-30T23:55:41;101177.83;;;3.87;80.83
